createdAt,value
2017-10-26T00:00:52.502Z,92.14
2017-10-26T00:03:21.608Z,92.08
2017-10-26T00:05:50.720Z,92.08
2017-10-26T00:08:19.057Z,92.06
2017-10-26T00:10:47.397Z,92.03
2017-10-26T00:13:15.727Z,92.03
2017-10-26T00:15:44.048Z,92.09
2017-10-26T00:18:12.397Z,92.12
2017-10-26T00:20:40.715Z,92.21
2017-10-26T00:23:09.030Z,92.24
2017-10-26T00:25:37.380Z,92.25
2017-10-26T00:28:05.694Z,92.22
2017-10-26T00:30:34.053Z,92.24
2017-10-26T00:33:02.375Z,92.25
2017-10-26T00:35:30.694Z,92.27
2017-10-26T00:37:59.770Z,92.30
2017-10-26T00:40:28.146Z,92.32
2017-10-26T00:42:57.997Z,92.33
2017-10-26T00:45:26.372Z,92.41
2017-10-26T00:47:54.711Z,92.46
2017-10-26T00:50:23.035Z,92.47
2017-10-26T00:52:52.125Z,92.46
2017-10-26T00:55:21.231Z,92.51
2017-10-26T00:57:49.579Z,92.57
2017-10-26T01:00:17.907Z,92.55
2017-10-26T01:02:46.235Z,92.57
2017-10-26T01:05:14.578Z,92.60
2017-10-26T01:07:42.933Z,92.60
2017-10-26T01:10:12.079Z,92.61
2017-10-26T01:12:40.449Z,92.61
2017-10-26T01:15:08.829Z,92.62
2017-10-26T01:17:37.200Z,92.62
2017-10-26T01:20:07.455Z,92.60
2017-10-26T01:22:35.850Z,92.58
2017-10-26T01:25:04.257Z,92.61
2017-10-26T01:27:33.369Z,92.58
2017-10-26T01:30:02.480Z,92.64
2017-10-26T01:32:31.581Z,92.73
2017-10-26T01:34:59.936Z,92.72
2017-10-26T01:37:29.144Z,92.78
2017-10-26T01:39:58.243Z,92.81
2017-10-26T01:42:26.547Z,92.79
2017-10-26T01:44:54.847Z,92.79
2017-10-26T01:47:23.176Z,92.84
2017-10-26T01:49:51.478Z,92.89
2017-10-26T01:52:20.578Z,92.93
2017-10-26T01:54:49.735Z,92.97
2017-10-26T01:57:18.074Z,93.00
2017-10-26T01:59:46.403Z,92.96
2017-10-26T02:02:14.754Z,92.99
2017-10-26T02:04:43.070Z,92.96
2017-10-26T02:07:11.412Z,92.93
2017-10-26T02:09:39.760Z,92.93
2017-10-26T02:12:08.837Z,92.95
2017-10-26T02:14:37.182Z,92.94
2017-10-26T02:17:05.502Z,92.93
2017-10-26T02:19:33.843Z,92.96
2017-10-26T02:22:02.196Z,92.99
2017-10-26T02:24:31.281Z,93.04
2017-10-26T02:26:59.624Z,93.11
2017-10-26T02:29:45.565Z,93.20
2017-10-26T02:32:14.656Z,93.22
2017-10-26T02:34:43.758Z,93.20
2017-10-26T02:37:12.868Z,93.25
2017-10-26T02:39:41.196Z,93.25
2017-10-26T02:42:09.515Z,93.31
2017-10-26T02:44:38.586Z,93.29
2017-10-26T02:47:06.927Z,93.23
2017-10-26T02:49:35.246Z,93.25
2017-10-26T02:52:03.605Z,93.26
2017-10-26T02:54:31.955Z,93.29
2017-10-26T02:57:00.276Z,93.41
2017-10-26T02:59:28.634Z,93.56
2017-10-26T03:01:56.940Z,93.62
2017-10-26T03:04:25.287Z,93.69
2017-10-26T03:06:53.618Z,93.72
2017-10-26T03:09:21.941Z,93.67
2017-10-26T03:11:50.268Z,93.57
2017-10-26T03:14:18.594Z,93.48
2017-10-26T03:16:47.693Z,93.46
2017-10-26T03:19:16.778Z,93.42
2017-10-26T03:21:45.118Z,93.42
2017-10-26T03:24:13.440Z,93.46
2017-10-26T03:26:41.773Z,93.47
2017-10-26T03:29:10.174Z,93.45
2017-10-26T03:31:38.503Z,93.44
2017-10-26T03:34:07.568Z,93.37
2017-10-26T03:36:35.903Z,93.39
2017-10-26T03:39:04.231Z,93.43
2017-10-26T03:41:32.538Z,93.49
2017-10-26T03:44:01.614Z,93.51
2017-10-26T03:46:29.962Z,93.50
2017-10-26T03:48:58.284Z,93.51
2017-10-26T03:51:26.654Z,93.54
2017-10-26T03:53:54.972Z,93.59
2017-10-26T03:56:24.065Z,93.59
2017-10-26T03:58:53.143Z,93.69
2017-10-26T04:01:21.484Z,93.72
2017-10-26T04:03:49.801Z,93.71
2017-10-26T04:06:18.126Z,93.71
2017-10-26T04:08:46.439Z,93.76
2017-10-26T04:11:14.786Z,93.79
2017-10-26T04:13:43.092Z,93.86
2017-10-26T04:16:11.388Z,93.91
2017-10-26T04:18:39.700Z,94.02
2017-10-26T04:21:08.824Z,93.99
2017-10-26T04:23:37.918Z,93.97
2017-10-26T04:26:07.014Z,94.02
2017-10-26T04:28:35.341Z,93.98
2017-10-26T04:31:03.733Z,93.96
2017-10-26T04:33:32.075Z,93.99
2017-10-26T04:36:00.386Z,93.97
2017-10-26T04:38:28.708Z,93.96
2017-10-26T04:40:57.048Z,93.97
2017-10-26T04:43:25.368Z,94.01
2017-10-26T04:45:53.698Z,94.01
2017-10-26T04:48:22.029Z,94.07
2017-10-26T04:50:50.358Z,94.16
2017-10-26T04:53:18.668Z,94.18
2017-10-26T04:55:46.976Z,94.22
2017-10-26T04:58:15.297Z,94.21
2017-10-26T05:00:43.625Z,94.18
2017-10-26T05:03:11.960Z,94.21
2017-10-26T05:05:40.284Z,94.22
2017-10-26T05:08:08.611Z,94.24
2017-10-26T05:10:36.945Z,94.28
2017-10-26T05:13:05.266Z,94.25
2017-10-26T05:15:34.365Z,94.19
2017-10-26T05:18:02.693Z,94.19
2017-10-26T05:20:31.006Z,94.19
2017-10-26T05:22:59.329Z,94.19
2017-10-26T05:25:27.840Z,94.16
2017-10-26T05:27:56.175Z,94.14
2017-10-26T05:30:25.300Z,94.08
2017-10-26T05:32:53.625Z,94.03
2017-10-26T05:35:21.954Z,94.02
2017-10-26T05:37:50.284Z,94.00
2017-10-26T05:40:18.599Z,93.98
2017-10-26T05:42:47.684Z,94.01
2017-10-26T05:45:16.768Z,94.02
2017-10-26T05:47:45.090Z,94.04
2017-10-26T05:50:13.431Z,94.01
2017-10-26T05:52:41.769Z,94.02
2017-10-26T05:55:10.109Z,94.02
2017-10-26T05:57:39.969Z,94.06
2017-10-26T06:00:08.289Z,94.04
2017-10-26T06:02:36.632Z,94.01
2017-10-26T06:05:05.001Z,93.89
2017-10-26T06:07:33.309Z,93.75
2017-10-26T06:10:01.664Z,93.69
2017-10-26T06:12:29.970Z,93.61
2017-10-26T06:14:58.339Z,93.58
2017-10-26T06:17:26.734Z,93.61
2017-10-26T06:19:55.103Z,93.63
2017-10-26T06:22:23.475Z,93.64
2017-10-26T06:24:51.805Z,93.58
2017-10-26T06:27:20.137Z,93.50
2017-10-26T06:29:48.469Z,93.46
2017-10-26T06:32:16.779Z,93.39
2017-10-26T06:34:45.869Z,93.37
2017-10-26T06:37:14.176Z,93.30
2017-10-26T06:39:42.515Z,93.28
2017-10-26T06:42:10.848Z,93.23
2017-10-26T06:44:40.013Z,93.16
2017-10-26T06:47:08.332Z,93.16
2017-10-26T06:49:36.655Z,93.02
2017-10-26T06:52:05.001Z,92.87
2017-10-26T06:54:33.331Z,92.73
2017-10-26T06:57:01.668Z,92.50
2017-10-26T06:59:30.036Z,92.11
2017-10-26T07:01:58.353Z,91.92
2017-10-26T07:04:26.705Z,91.88
2017-10-26T07:06:55.035Z,91.69
2017-10-26T07:09:23.336Z,91.68
2017-10-26T07:11:52.437Z,91.63
2017-10-26T07:14:21.545Z,91.48
2017-10-26T07:16:50.663Z,91.34
2017-10-26T07:19:18.991Z,91.26
2017-10-26T07:21:47.334Z,91.36
2017-10-26T07:24:15.643Z,91.29
2017-10-26T07:26:44.005Z,91.05
2017-10-26T07:29:12.329Z,90.98
2017-10-26T07:31:40.673Z,90.75
2017-10-26T07:34:09.011Z,90.85
2017-10-26T07:36:38.104Z,90.53
2017-10-26T07:39:07.183Z,90.61
2017-10-26T07:41:35.521Z,90.64
2017-10-26T07:44:03.839Z,90.70
2017-10-26T07:46:34.775Z,90.56
2017-10-26T07:49:03.085Z,90.53
2017-10-26T07:51:32.184Z,90.42
2017-10-26T07:54:01.317Z,90.26
2017-10-26T07:56:29.722Z,90.27
2017-10-26T07:58:58.066Z,90.19
2017-10-26T08:01:26.365Z,90.29
2017-10-26T08:03:54.695Z,90.33
2017-10-26T08:06:23.742Z,90.29
2017-10-26T08:08:52.060Z,90.14
2017-10-26T08:11:20.391Z,90.02
2017-10-26T08:13:48.714Z,89.96
2017-10-26T08:16:17.053Z,89.71
2017-10-26T08:18:45.388Z,89.77
2017-10-26T08:21:13.709Z,89.84
2017-10-26T08:23:42.043Z,89.62
2017-10-26T08:26:10.365Z,89.67
2017-10-26T08:28:39.475Z,89.36
2017-10-26T08:31:07.876Z,89.39
2017-10-26T08:33:36.218Z,89.56
2017-10-26T08:36:05.308Z,89.37
2017-10-26T08:38:33.647Z,89.28
2017-10-26T08:41:01.998Z,88.92
2017-10-26T08:43:31.095Z,88.80
2017-10-26T08:46:00.188Z,88.59
2017-10-26T08:48:29.279Z,88.55
2017-10-26T08:50:58.380Z,88.26
2017-10-26T08:53:27.491Z,88.15
2017-10-26T08:55:56.600Z,87.94
2017-10-26T08:58:25.025Z,87.91
2017-10-26T09:00:53.346Z,87.70
2017-10-26T09:03:22.450Z,87.49
2017-10-26T09:05:51.574Z,87.39
2017-10-26T09:08:19.896Z,87.55
2017-10-26T09:10:48.214Z,87.63
2017-10-26T09:13:17.302Z,87.64
2017-10-26T09:15:45.620Z,87.85
2017-10-26T09:18:13.943Z,87.81
2017-10-26T09:20:42.248Z,87.81
2017-10-26T09:23:11.350Z,87.66
2017-10-26T09:25:39.676Z,87.50
2017-10-26T09:28:07.989Z,87.49
2017-10-26T09:30:36.307Z,87.41
2017-10-26T09:33:10.797Z,87.48
2017-10-26T09:35:39.121Z,87.05
2017-10-26T09:38:07.445Z,86.41
2017-10-26T09:40:35.770Z,85.77
2017-10-26T09:43:04.867Z,85.44
2017-10-26T09:45:33.231Z,84.54
2017-10-26T09:48:01.556Z,82.87
2017-10-26T09:50:29.884Z,82.03
2017-10-26T09:52:58.199Z,80.01
2017-10-26T09:55:26.527Z,79.39
2017-10-26T09:57:54.854Z,78.37
2017-10-26T10:00:23.936Z,76.81
2017-10-26T10:02:52.256Z,76.36
2017-10-26T10:05:20.572Z,75.82
2017-10-26T10:07:48.980Z,76.34
2017-10-26T10:10:18.070Z,76.42
2017-10-26T10:12:46.412Z,74.51
2017-10-26T10:15:14.758Z,74.35
2017-10-26T10:17:43.832Z,72.91
2017-10-26T10:20:12.166Z,72.37
2017-10-26T10:22:40.502Z,71.91
2017-10-26T10:25:08.856Z,71.08
2017-10-26T10:27:37.189Z,71.26
2017-10-26T10:30:05.538Z,70.45
2017-10-26T10:32:33.874Z,69.96
2017-10-26T10:35:02.220Z,70.14
2017-10-26T10:37:30.550Z,69.04
2017-10-26T10:39:58.863Z,68.68
2017-10-26T10:42:27.185Z,68.38
2017-10-26T10:44:55.511Z,66.42
2017-10-26T10:47:23.828Z,66.38
2017-10-26T10:49:52.119Z,66.81
2017-10-26T10:52:21.970Z,67.32
2017-10-26T10:54:50.259Z,67.92
2017-10-26T10:57:18.611Z,67.95
2017-10-26T11:02:50.661Z,68.47
2017-10-26T11:05:19.735Z,68.50
2017-10-26T11:07:48.097Z,68.64
2017-10-26T11:10:17.019Z,68.67
2017-10-26T11:12:46.220Z,68.66
2017-10-26T11:15:14.549Z,68.07
2017-10-26T11:17:42.887Z,68.15
2017-10-26T11:20:11.226Z,68.18
2017-10-26T11:22:39.692Z,68.15
2017-10-26T11:25:07.998Z,68.03
2017-10-26T11:27:36.322Z,68.33
2017-10-26T11:30:04.642Z,68.46
2017-10-26T11:32:33.131Z,68.18
2017-10-26T11:35:01.446Z,68.09
2017-10-26T11:37:29.755Z,67.74
2017-10-26T11:39:58.068Z,67.80
2017-10-26T11:42:26.380Z,67.68
2017-10-26T11:44:54.695Z,67.54
2017-10-26T11:47:23.007Z,67.72
2017-10-26T11:49:51.326Z,66.80
2017-10-26T11:52:19.635Z,67.61
2017-10-26T11:54:48.024Z,67.94
2017-10-26T11:57:17.144Z,67.92
2017-10-26T11:59:45.469Z,68.46
2017-10-26T12:02:13.788Z,68.05
2017-10-26T12:04:42.892Z,68.30
2017-10-26T12:07:11.976Z,68.41
2017-10-26T12:09:41.063Z,68.61
2017-10-26T12:12:09.380Z,68.52
2017-10-26T12:14:38.512Z,68.43
2017-10-26T12:17:06.858Z,68.22
2017-10-26T12:19:35.936Z,68.04
2017-10-26T12:22:05.050Z,67.83
2017-10-26T12:24:34.159Z,66.93
2017-10-26T12:27:03.286Z,66.87
2017-10-26T12:29:31.623Z,66.76
2017-10-26T12:31:59.946Z,66.44
2017-10-26T12:34:28.275Z,67.03
2017-10-26T12:36:56.605Z,67.50
2017-10-26T12:39:24.952Z,67.89
2017-10-26T12:41:54.056Z,66.52
2017-10-26T12:44:23.133Z,65.63
2017-10-26T12:46:51.455Z,65.57
2017-10-26T12:49:19.773Z,65.96
2017-10-26T12:51:48.103Z,66.22
2017-10-26T12:54:17.212Z,65.81
2017-10-26T12:56:45.530Z,65.88
2017-10-26T12:59:13.892Z,65.12
2017-10-26T13:01:42.990Z,65.57
2017-10-26T13:04:11.283Z,65.80
2017-10-26T13:06:39.619Z,66.25
2017-10-26T13:09:08.752Z,66.33
2017-10-26T13:11:37.054Z,66.23
2017-10-26T13:14:05.385Z,66.38
2017-10-26T13:16:34.482Z,66.54
2017-10-26T13:19:03.582Z,66.87
2017-10-26T13:21:32.673Z,67.45
2017-10-26T13:24:01.012Z,67.13
2017-10-26T13:26:29.363Z,66.85
2017-10-26T13:28:58.101Z,67.46
2017-10-26T13:31:26.600Z,68.05
2017-10-26T13:33:54.904Z,68.07
2017-10-26T13:36:24.001Z,68.19
2017-10-26T13:38:52.358Z,68.48
2017-10-26T13:41:20.672Z,68.87
2017-10-26T13:43:49.762Z,69.23
2017-10-26T13:46:18.854Z,69.08
2017-10-26T13:48:47.220Z,68.80
2017-10-26T13:51:15.560Z,69.07
2017-10-26T13:53:43.880Z,69.43
2017-10-26T13:56:12.201Z,69.73
2017-10-26T13:58:40.533Z,69.81
2017-10-26T14:01:08.848Z,69.89
2017-10-26T14:03:37.163Z,69.50
2017-10-26T14:06:05.490Z,69.54
2017-10-26T14:08:33.830Z,69.95
2017-10-26T14:11:02.154Z,70.16
2017-10-26T14:13:30.435Z,70.25
2017-10-26T14:15:58.811Z,70.24
2017-10-26T14:18:27.255Z,70.27
2017-10-26T14:20:55.557Z,70.38
2017-10-26T14:23:23.875Z,70.11
2017-10-26T14:25:52.196Z,70.12
2017-10-26T14:28:20.513Z,70.33
2017-10-26T14:30:48.840Z,70.43
2017-10-26T14:33:17.938Z,70.63
2017-10-26T14:35:47.017Z,70.64
2017-10-26T14:38:15.331Z,70.75
2017-10-26T14:40:43.651Z,70.85
2017-10-26T14:43:11.975Z,70.55
2017-10-26T14:45:41.080Z,70.67
2017-10-26T14:48:10.153Z,70.82
2017-10-26T14:50:38.472Z,70.93
2017-10-26T14:53:06.809Z,71.00
2017-10-26T14:55:35.119Z,70.84
2017-10-26T14:58:04.221Z,71.14
2017-10-26T15:00:32.553Z,71.34
2017-10-26T15:03:00.904Z,71.29
2017-10-26T15:05:29.237Z,71.25
2017-10-26T15:07:58.066Z,71.36
2017-10-26T15:10:26.403Z,71.21
2017-10-26T15:12:54.711Z,71.57
2017-10-26T15:15:23.785Z,71.72
2017-10-26T15:17:52.113Z,71.82
2017-10-26T15:20:20.427Z,71.97
2017-10-26T15:22:48.749Z,71.61
2017-10-26T15:25:17.102Z,72.06
2017-10-26T15:27:45.449Z,72.14
2017-10-26T15:30:13.772Z,71.97
2017-10-26T15:32:42.095Z,71.24
2017-10-26T15:35:11.176Z,71.44
2017-10-26T15:37:40.248Z,71.60
2017-10-26T15:40:08.569Z,71.59
2017-10-26T15:42:36.911Z,71.65
2017-10-26T15:45:05.243Z,72.07
2017-10-26T15:47:33.563Z,71.77
2017-10-26T15:50:01.889Z,71.95
2017-10-26T15:52:30.988Z,72.09
2017-10-26T15:55:00.085Z,72.29
2017-10-26T15:57:29.169Z,72.42
2017-10-26T15:59:57.480Z,72.65
2017-10-26T16:02:25.804Z,72.86
2017-10-26T16:04:54.123Z,72.90
2017-10-26T16:07:24.055Z,73.31
2017-10-26T16:09:52.402Z,73.54
2017-10-26T16:12:20.731Z,73.63
2017-10-26T16:14:49.038Z,73.79
2017-10-26T16:17:17.374Z,73.93
2017-10-26T16:19:46.484Z,73.94
2017-10-26T16:22:14.797Z,74.02
2017-10-26T16:24:43.133Z,74.10
2017-10-26T16:27:12.214Z,74.32
2017-10-26T16:29:41.340Z,74.53
2017-10-26T16:32:10.416Z,74.62
2017-10-26T16:34:38.741Z,74.49
2017-10-26T16:37:07.057Z,74.65
2017-10-26T16:39:35.380Z,74.72
2017-10-26T16:42:06.324Z,74.58
2017-10-26T16:44:34.872Z,74.63
2017-10-26T16:47:03.216Z,74.77
2017-10-26T16:49:31.540Z,74.92
2017-10-26T16:51:59.881Z,75.05
2017-10-26T16:54:28.906Z,75.17
2017-10-26T16:56:57.240Z,75.27
2017-10-26T16:59:25.629Z,75.39
2017-10-26T17:01:53.936Z,75.37
2017-10-26T17:04:22.246Z,75.42
2017-10-26T17:06:50.561Z,75.39
2017-10-26T17:09:18.915Z,75.46
2017-10-26T17:11:48.038Z,75.30
2017-10-26T17:14:16.461Z,75.36
2017-10-26T17:16:44.889Z,75.57
2017-10-26T17:19:14.803Z,75.70
2017-10-26T17:21:44.277Z,75.64
2017-10-26T17:24:13.762Z,75.54
2017-10-26T17:26:42.322Z,75.51
2017-10-26T17:29:10.672Z,75.55
2017-10-26T17:31:38.987Z,75.47
2017-10-26T17:34:08.077Z,75.35
2017-10-26T17:36:37.169Z,75.59
2017-10-26T17:39:05.526Z,75.80
2017-10-26T17:41:35.333Z,75.91
2017-10-26T17:44:03.640Z,76.02
2017-10-26T17:46:32.000Z,76.14
2017-10-26T17:49:01.062Z,76.48
2017-10-26T17:51:30.454Z,76.44
2017-10-26T17:53:58.772Z,76.33
2017-10-26T17:56:27.122Z,76.18
2017-10-26T17:58:55.441Z,76.16
2017-10-26T18:01:23.841Z,76.45
2017-10-26T18:03:52.148Z,76.34
2017-10-26T18:06:21.340Z,76.16
2017-10-26T18:08:50.324Z,75.86
2017-10-26T18:11:18.634Z,75.93
2017-10-26T18:13:47.720Z,76.00
2017-10-26T18:16:16.036Z,76.01
2017-10-26T18:18:44.346Z,75.84
2017-10-26T18:21:12.675Z,75.40
2017-10-26T18:23:41.771Z,75.45
2017-10-26T18:26:10.132Z,75.53
2017-10-26T18:28:38.448Z,75.65
2017-10-26T18:31:06.822Z,75.60
2017-10-26T18:33:35.896Z,75.53
2017-10-26T18:36:04.222Z,75.37
2017-10-26T18:38:32.535Z,75.54
2017-10-26T18:41:00.915Z,75.64
2017-10-26T18:43:29.222Z,75.62
2017-10-26T18:45:57.556Z,75.66
2017-10-26T18:48:25.891Z,75.83
2017-10-26T18:50:54.215Z,75.71
2017-10-26T18:53:22.526Z,75.64
2017-10-26T18:55:50.832Z,75.98
2017-10-26T18:58:19.165Z,76.10
2017-10-26T19:00:47.512Z,76.30
2017-10-26T19:03:16.583Z,76.04
2017-10-26T19:05:44.904Z,76.14
2017-10-26T19:08:13.240Z,76.11
2017-10-26T19:10:41.557Z,76.05
2017-10-26T19:13:10.641Z,76.18
2017-10-26T19:15:39.743Z,76.11
2017-10-26T19:18:08.846Z,75.89
2017-10-26T19:20:37.943Z,76.06
2017-10-26T19:23:07.054Z,76.22
2017-10-26T19:25:36.121Z,76.49
2017-10-26T19:28:04.479Z,76.44
2017-10-26T19:30:32.798Z,76.61
2017-10-26T19:33:01.116Z,76.66
2017-10-26T19:35:29.453Z,76.70
2017-10-26T19:37:57.776Z,76.77
2017-10-26T19:40:26.094Z,76.97
2017-10-26T19:42:54.392Z,77.04
2017-10-26T19:45:22.723Z,76.98
2017-10-26T19:47:51.052Z,76.94
2017-10-26T19:50:19.382Z,76.83
2017-10-26T19:52:47.692Z,76.85
2017-10-26T19:55:16.024Z,76.86
2017-10-26T19:57:44.378Z,76.84
2017-10-26T20:00:12.675Z,76.97
2017-10-26T20:02:40.994Z,77.07
2017-10-26T20:05:09.290Z,77.10
2017-10-26T20:07:37.754Z,77.18
2017-10-26T20:10:06.083Z,77.20
2017-10-26T20:12:34.419Z,77.09
2017-10-26T20:15:02.759Z,77.19
2017-10-26T20:17:31.886Z,77.37
2017-10-26T20:20:01.011Z,77.36
2017-10-26T20:22:29.334Z,77.43
2017-10-26T20:24:57.668Z,77.51
2017-10-26T20:27:26.000Z,77.49
2017-10-26T20:29:54.310Z,77.72
2017-10-26T20:32:23.464Z,77.86
2017-10-26T20:34:51.802Z,77.94
2017-10-26T20:37:20.119Z,77.96
2017-10-26T20:39:48.468Z,77.75
2017-10-26T20:42:16.779Z,77.75
2017-10-26T20:44:45.081Z,77.84
2017-10-26T20:47:13.430Z,77.86
2017-10-26T20:49:47.225Z,77.92
2017-10-26T20:52:20.966Z,78.05
2017-10-26T20:54:54.699Z,77.99
2017-10-26T20:57:29.256Z,78.16
2017-10-26T21:03:06.155Z,78.33
2017-10-26T21:05:39.901Z,78.49
2017-10-26T21:08:08.224Z,78.46
2017-10-26T21:10:41.998Z,78.58
2017-10-26T21:13:16.680Z,78.70
2017-10-26T21:15:44.995Z,78.84
2017-10-26T21:18:14.104Z,78.90
2017-10-26T21:20:43.183Z,79.00
2017-10-26T21:23:11.524Z,78.89
2017-10-26T21:25:39.839Z,78.88
2017-10-26T21:28:08.163Z,78.83
2017-10-26T21:30:36.503Z,78.60
2017-10-26T21:33:04.828Z,78.59
2017-10-26T21:35:33.134Z,78.32
2017-10-26T21:38:01.426Z,78.31
2017-10-26T21:40:29.773Z,78.47
2017-10-26T21:42:58.104Z,78.46
2017-10-26T21:45:26.445Z,78.37
2017-10-26T21:47:54.742Z,78.07
2017-10-26T21:50:23.053Z,78.26
2017-10-26T21:52:51.364Z,78.52
2017-10-26T21:55:20.447Z,78.51
2017-10-26T21:57:49.529Z,78.40
2017-10-26T22:00:17.880Z,78.35
2017-10-26T22:02:46.199Z,78.59
2017-10-26T22:05:14.530Z,78.68
2017-10-26T22:07:42.851Z,78.69
2017-10-26T22:10:11.174Z,78.63
2017-10-26T22:12:40.278Z,78.67
2017-10-26T22:15:08.613Z,78.58
2017-10-26T22:17:36.922Z,78.60
2017-10-26T22:20:06.013Z,78.55
2017-10-26T22:22:34.329Z,78.49
2017-10-26T22:25:02.660Z,78.20
2017-10-26T22:27:30.978Z,77.57
2017-10-26T22:30:00.039Z,77.44
2017-10-26T22:32:28.333Z,76.61
2017-10-26T22:34:56.674Z,76.27
2017-10-26T22:37:25.044Z,75.78
2017-10-26T22:39:53.344Z,74.75
2017-10-26T22:42:21.653Z,75.00
2017-10-26T22:44:49.962Z,74.20
2017-10-26T22:47:19.597Z,73.68
2017-10-26T22:49:47.921Z,73.65
2017-10-26T22:52:16.233Z,73.36
2017-10-26T22:54:44.617Z,73.36
2017-10-26T22:57:12.963Z,73.28
2017-10-26T22:59:41.290Z,73.46
2017-10-26T23:02:09.611Z,73.50
2017-10-26T23:04:37.933Z,73.55
2017-10-26T23:07:07.069Z,73.38
2017-10-26T23:09:35.377Z,73.15
2017-10-26T23:12:03.680Z,73.15
2017-10-26T23:14:31.992Z,73.17
2017-10-26T23:17:00.293Z,73.60
2017-10-26T23:19:28.611Z,73.51
2017-10-26T23:21:56.925Z,73.50
2017-10-26T23:24:25.250Z,73.75
2017-10-26T23:26:53.539Z,74.04
2017-10-26T23:29:21.867Z,74.18
2017-10-26T23:31:50.945Z,74.26
2017-10-26T23:34:19.243Z,74.60
2017-10-26T23:36:48.339Z,74.87
2017-10-26T23:39:17.423Z,75.05
2017-10-26T23:41:45.749Z,75.18
2017-10-26T23:44:14.136Z,75.11
2017-10-26T23:46:42.474Z,75.25
2017-10-26T23:49:10.796Z,75.29
2017-10-26T23:51:39.109Z,75.47
2017-10-26T23:54:07.562Z,75.53
2017-10-26T23:56:35.943Z,75.47
2017-10-26T23:59:04.293Z,75.53
